Rindo Maru — JD3883 — position and weather

sailwx.info

Track history (hours):
 
Tides and Currents Weather Stations Pressure Air Temp Water Temp Dewpoint Dewpoint Depression Visibility Wind Speed Wind Dir Waves Ship Positions

Rindo Maru

Last reported at 2017-Nov-15 01:43 UTC. Time now 2017-Nov-23 05:22 UTC.
Position N 34°49' E 139°52'.
Warning: this ship's position is 8 days out of date.

Length 105 m; draft 6.4 m.

Type: Tanker. MMSI: 431007017.

Date/timePositionNaut miles runAvg speedWind from/ knotsBaromVisibWave heightAir tempDewpointWater temp
2017-Nov-15 01:43N 34°49' E 139°52'413.5
2017-Nov-15 01:26N 34°51' E 139°48'613.4
2017-Nov-15 01:00N 34°56' E 139°44'713.5
2017-Nov-15 00:31N 35°03' E 139°43'714.7
2017-Nov-15 00:01N 35°10' E 139°45'713.2
2017-Nov-14 23:30N 35°16' E 139°45'612.9
2017-Nov-14 23:00N 35°22' E 139°42'612.8
2017-Nov-14 22:31N 35°28' E 139°46'0 1.0
2017-Nov-14 22:00N 35°29' E 139°46'0 0.0
2017-Nov-14 21:30N 35°29' E 139°46'0 0.0
2017-Nov-14 21:00N 35°29' E 139°46'0 0.0
2017-Nov-14 20:30N 35°29' E 139°46'0 0.0
2017-Nov-14 19:57N 35°29' E 139°46'0 0.0
2017-Nov-14 19:30N 35°29' E 139°46'0 0.0
2017-Nov-14 19:00N 35°29' E 139°46'0 0.0
2017-Nov-14 18:24N 35°29' E 139°46'0 0.1
2017-Nov-14 18:00N 35°29' E 139°46'0 0.1
2017-Nov-14 17:30N 35°29' E 139°46'0 0.0
2017-Nov-14 17:00N 35°29' E 139°46'0 0.0
2017-Nov-14 16:30N 35°29' E 139°46'0 0.0
2017-Nov-14 16:00N 35°29' E 139°46'0 0.0
2017-Nov-14 15:30N 35°29' E 139°46'0 0.0
2017-Nov-14 15:00N 35°29' E 139°46'0 0.0
2017-Nov-14 14:30N 35°29' E 139°46'0 0.1
2017-Nov-14 14:00N 35°29' E 139°46'0 0.0
2017-Nov-14 13:30N 35°29' E 139°46'2 3.9
2017-Nov-14 13:00N 35°30' E 139°46'1 1.1
2017-Nov-14 12:30N 35°30' E 139°45'0 0.0
2017-Nov-14 10:04N 35°30' E 139°45'0 0.0
2017-Nov-14 08:44N 35°30' E 139°45'0 0.2
2017-Nov-14 08:30N 35°30' E 139°45'3 6.4
2017-Nov-14 08:01N 35°28' E 139°42'510.5
2017-Nov-14 07:30N 35°29' E 139°48'2 2.0
2017-Nov-14 06:41N 35°30' E 139°50'0 0.1
2017-Nov-14 06:28N 35°30' E 139°50'0 0.0
2017-Nov-14 05:58N 35°30' E 139°50'0 0.2
2017-Nov-14 05:30N 35°30' E 139°50'611.5
2017-Nov-14 05:00N 35°32' E 139°57'4 0.7
2017-Nov-13 23:08N 35°32' E 140°02'2 7.7
2017-Nov-13 22:56N 35°31' E 140°00'4 9.6
2017-Nov-13 22:29N 35°30' E 139°55'5 9.6
2017-Nov-13 22:00N 35°28' E 139°51'  
2017-Nov-07 17:07N 35°10' E 139°46'213.8
2017-Nov-07 16:59N 35°12' E 139°46'612.5
2017-Nov-07 16:30N 35°18' E 139°44'612.6
2017-Nov-07 16:00N 35°24' E 139°43'714.1
2017-Nov-07 15:30N 35°29' E 139°50'613.0
2017-Nov-07 15:01N 35°30' E 139°58'3 0.5
2017-Nov-07 08:34N 35°28' E 140°01'0 2.0
2017-Nov-07 08:26N 35°29' E 140°01'4 8.2
2017-Nov-07 07:59N 35°30' E 139°57'510.7
2017-Nov-07 07:31N 35°31' E 139°51'0 0.0
2017-Nov-07 06:53N 35°31' E 139°51'0 0.0
2017-Nov-07 06:29N 35°31' E 139°51'0 0.0
2017-Nov-07 05:59N 35°31' E 139°51'0 0.0
2017-Nov-07 05:29N 35°31' E 139°51'0 0.5
2017-Nov-07 05:00N 35°30' E 139°50'4 8.6
2017-Nov-07 04:30N 35°30' E 139°45'0 0.1
2017-Nov-07 03:56N 35°30' E 139°45'0 0.0
2017-Nov-07 03:23N 35°30' E 139°45'0 0.0
2017-Nov-07 02:56N 35°30' E 139°45'0 0.0
2017-Nov-07 02:23N 35°30' E 139°45'0 0.0
2017-Nov-07 01:56N 35°30' E 139°45'0 0.0
2017-Nov-07 01:29N 35°30' E 139°45'0 0.0
2017-Nov-07 00:59N 35°30' E 139°45'0 0.0
2017-Nov-07 00:29N 35°30' E 139°45'0 0.0
2017-Nov-06 23:59N 35°30' E 139°45'0 0.0
2017-Nov-06 23:30N 35°30' E 139°45'2 3.6
2017-Nov-06 23:00N 35°29' E 139°43'4 7.3
2017-Nov-06 22:30N 35°26' E 139°44'2 3.6
2017-Nov-06 21:58N 35°24' E 139°46'0 0.0
2017-Nov-06 21:28N 35°24' E 139°46'0 0.0
2017-Nov-06 20:58N 35°24' E 139°46'0 0.1
2017-Nov-06 20:28N 35°24' E 139°46'12 0.6
2017-Nov-05 23:52N 35°30' E 139°58'0 0.1
2017-Nov-05 23:28N 35°30' E 139°58'0 0.0
2017-Nov-05 22:52N 35°30' E 139°58'0 0.0
2017-Nov-05 22:25N 35°30' E 139°58'0 0.0
2017-Nov-05 21:55N 35°30' E 139°58'0 0.0
2017-Nov-05 21:25N 35°30' E 139°58'0 0.0
2017-Nov-05 19:19N 35°30' E 139°58'0 0.2
2017-Nov-05 18:59N 35°30' E 139°58'510.6
2017-Nov-05 18:30N 35°29' E 139°52'713.4
2017-Nov-05 18:00N 35°24' E 139°46'612.0
2017-Nov-05 17:30N 35°18' E 139°45'612.2
2017-Nov-05 17:00N 35°12' E 139°47'713.1
2017-Nov-05 16:30N 35°06' E 139°44'713.6
2017-Nov-05 16:00N 34°59' E 139°43'713.3
2017-Nov-05 15:30N 34°53' E 139°46'1012.3
2017-Nov-05 14:41N 34°53' E 139°58'  
Track history (hours):
 
Tides and Currents Weather Stations Pressure Air Temp Water Temp Dewpoint Dewpoint Depression Visibility Wind Speed Wind Dir Waves Ship Positions

Rindo Maru

Last reported at 2017-Nov-15 01:43 UTC. Time now 2017-Nov-23 05:22 UTC.
Position N 34°49' E 139°52'.
Warning: this ship's position is 8 days out of date.

Length 105 m; draft 6.4 m.

Type: Tanker. MMSI: 431007017.

Date/timePositionNaut miles runAvg speedWind from/ knotsBaromVisibWave heightAir tempDewpointWater temp
2017-Nov-15 01:43N 34°49' E 139°52'413.5
2017-Nov-15 01:26N 34°51' E 139°48'613.4
2017-Nov-15 01:00N 34°56' E 139°44'713.5
2017-Nov-15 00:31N 35°03' E 139°43'714.7
2017-Nov-15 00:01N 35°10' E 139°45'713.2
2017-Nov-14 23:30N 35°16' E 139°45'612.9
2017-Nov-14 23:00N 35°22' E 139°42'612.8
2017-Nov-14 22:31N 35°28' E 139°46'0 1.0
2017-Nov-14 22:00N 35°29' E 139°46'0 0.0
2017-Nov-14 21:30N 35°29' E 139°46'0 0.0
2017-Nov-14 21:00N 35°29' E 139°46'0 0.0
2017-Nov-14 20:30N 35°29' E 139°46'0 0.0
2017-Nov-14 19:57N 35°29' E 139°46'0 0.0
2017-Nov-14 19:30N 35°29' E 139°46'0 0.0
2017-Nov-14 19:00N 35°29' E 139°46'0 0.0
2017-Nov-14 18:24N 35°29' E 139°46'0 0.1
2017-Nov-14 18:00N 35°29' E 139°46'0 0.1
2017-Nov-14 17:30N 35°29' E 139°46'0 0.0
2017-Nov-14 17:00N 35°29' E 139°46'0 0.0
2017-Nov-14 16:30N 35°29' E 139°46'0 0.0
2017-Nov-14 16:00N 35°29' E 139°46'0 0.0
2017-Nov-14 15:30N 35°29' E 139°46'0 0.0
2017-Nov-14 15:00N 35°29' E 139°46'0 0.0
2017-Nov-14 14:30N 35°29' E 139°46'0 0.1
2017-Nov-14 14:00N 35°29' E 139°46'0 0.0
2017-Nov-14 13:30N 35°29' E 139°46'2 3.9
2017-Nov-14 13:00N 35°30' E 139°46'1 1.1
2017-Nov-14 12:30N 35°30' E 139°45'0 0.0
2017-Nov-14 10:04N 35°30' E 139°45'0 0.0
2017-Nov-14 08:44N 35°30' E 139°45'0 0.2
2017-Nov-14 08:30N 35°30' E 139°45'3 6.4
2017-Nov-14 08:01N 35°28' E 139°42'510.5
2017-Nov-14 07:30N 35°29' E 139°48'2 2.0
2017-Nov-14 06:41N 35°30' E 139°50'0 0.1
2017-Nov-14 06:28N 35°30' E 139°50'0 0.0
2017-Nov-14 05:58N 35°30' E 139°50'0 0.2
2017-Nov-14 05:30N 35°30' E 139°50'611.5
2017-Nov-14 05:00N 35°32' E 139°57'4 0.7
2017-Nov-13 23:08N 35°32' E 140°02'2 7.7
2017-Nov-13 22:56N 35°31' E 140°00'4 9.6
2017-Nov-13 22:29N 35°30' E 139°55'5 9.6
2017-Nov-13 22:00N 35°28' E 139°51'  
2017-Nov-07 17:07N 35°10' E 139°46'213.8
2017-Nov-07 16:59N 35°12' E 139°46'612.5
2017-Nov-07 16:30N 35°18' E 139°44'612.6
2017-Nov-07 16:00N 35°24' E 139°43'714.1
2017-Nov-07 15:30N 35°29' E 139°50'613.0
2017-Nov-07 15:01N 35°30' E 139°58'3 0.5
2017-Nov-07 08:34N 35°28' E 140°01'0 2.0
2017-Nov-07 08:26N 35°29' E 140°01'4 8.2
2017-Nov-07 07:59N 35°30' E 139°57'510.7
2017-Nov-07 07:31N 35°31' E 139°51'0 0.0
2017-Nov-07 06:53N 35°31' E 139°51'0 0.0
2017-Nov-07 06:29N 35°31' E 139°51'0 0.0
2017-Nov-07 05:59N 35°31' E 139°51'0 0.0
2017-Nov-07 05:29N 35°31' E 139°51'0 0.5
2017-Nov-07 05:00N 35°30' E 139°50'4 8.6
2017-Nov-07 04:30N 35°30' E 139°45'0 0.1
2017-Nov-07 03:56N 35°30' E 139°45'0 0.0
2017-Nov-07 03:23N 35°30' E 139°45'0 0.0
2017-Nov-07 02:56N 35°30' E 139°45'0 0.0
2017-Nov-07 02:23N 35°30' E 139°45'0 0.0
2017-Nov-07 01:56N 35°30' E 139°45'0 0.0
2017-Nov-07 01:29N 35°30' E 139°45'0 0.0
2017-Nov-07 00:59N 35°30' E 139°45'0 0.0
2017-Nov-07 00:29N 35°30' E 139°45'0 0.0
2017-Nov-06 23:59N 35°30' E 139°45'0 0.0
2017-Nov-06 23:30N 35°30' E 139°45'2 3.6
2017-Nov-06 23:00N 35°29' E 139°43'4 7.3
2017-Nov-06 22:30N 35°26' E 139°44'2 3.6
2017-Nov-06 21:58N 35°24' E 139°46'0 0.0
2017-Nov-06 21:28N 35°24' E 139°46'0 0.0
2017-Nov-06 20:58N 35°24' E 139°46'0 0.1
2017-Nov-06 20:28N 35°24' E 139°46'12 0.6
2017-Nov-05 23:52N 35°30' E 139°58'0 0.1
2017-Nov-05 23:28N 35°30' E 139°58'0 0.0
2017-Nov-05 22:52N 35°30' E 139°58'0 0.0
2017-Nov-05 22:25N 35°30' E 139°58'0 0.0
2017-Nov-05 21:55N 35°30' E 139°58'0 0.0
2017-Nov-05 21:25N 35°30' E 139°58'0 0.0
2017-Nov-05 19:19N 35°30' E 139°58'0 0.2
2017-Nov-05 18:59N 35°30' E 139°58'510.6
2017-Nov-05 18:30N 35°29' E 139°52'713.4
2017-Nov-05 18:00N 35°24' E 139°46'612.0
2017-Nov-05 17:30N 35°18' E 139°45'612.2
2017-Nov-05 17:00N 35°12' E 139°47'713.1
2017-Nov-05 16:30N 35°06' E 139°44'713.6
2017-Nov-05 16:00N 34°59' E 139°43'713.3
2017-Nov-05 15:30N 34°53' E 139°46'1012.3
2017-Nov-05 14:41N 34°53' E 139°58'  

Dump ship's entire track history